Madison Heights, VA (24572)

8:26 AM EDT on September 27, 2016 (GMT -0400)
Concord Turnpike | | Change Station

Elev 543 ft 37.40 °N, 79.11 °W | Updated 34 seconds ago

Mostly Cloudy
Mostly Cloudy
67.2 °F
Feels Like 67.2 °F
N
1.3
Wind Variable Wind from WNW
Gusts 2.5 mph

Today
High -- | Low -- °F
--% Chance of Precip.
Yesterday
High -- | Low -- °F
Precip. -- in
Pressure 29.97 in
Visibility 10.0 miles
Clouds Mostly Cloudy 8000 ft
Dew Point 64 °F
Humidity 90%
Rainfall 0.03 in
Snow Depth Not available.
7:08 AM 7:04 PM
Waning Crescent, 12% visible
METAR KLYH 271154Z 00000KT 10SM BKN080 18/18 A2999 RMK AO2 SLP147 60019 70070 T01830183 10189 20178 53003
Pressure 29.97 in
Visibility 10.0 miles
Clouds Mostly Cloudy 8000 ft
Dew Point 64 °F
Humidity 90%
Rainfall 0.03 in
Snow Depth Not available.
7:08 AM 7:04 PM
Waning Crescent, 12% visible
METAR KLYH 271154Z 00000KT 10SM BKN080 18/18 A2999 RMK AO2 SLP147 60019 70070 T01830183 10189 20178 53003

10-Day Weather Forecast

Almanac

Astronomy

Sep. 27, 2016 Rise Set
Actual Time
Civil Twilight
Nautical Twilight
Astronomical Twilight
Moon
Length of Visible Light
Length of Day
Tomorrow will be .
, % of the Moon is Illuminated

Today's Extremes

State Highs State Lows

Community

WunderPhotos

Upload Photos

1,942,069 photos uploaded!

WunderBlog® & News

Nearby

Air Quality

  Air Quality AQ Index Pollutant
Not available.

Snow Depth

Station Depth Elevation

Earthquake Activity

City Distance Mag. Time & Date
Minimum magnitude displayed is 2.5.

Coastal Water Temperatures

Place Temperature

Stations

Nearby Weather Stations

Station Location Temp. Windchill Dew Point Humidity Wind Precip. Elev Updated Type
                   

Watches & Warnings

There are currently no watches in effect.